Красногорка

Карта отелей и гостиниц, располагающихся рядом с аэропортом Красногорка :

Красногорка Марий Эл 56° 18' 16.9812" N, 46° 32' 51.1188" E
Код аэродрома ИКАО
UWKC
Код аэродрома RU
УВКЦ
Координаты
N56.30472° E046.54753°
Превышение над уровнем моря
182
Основная полоса
06/24
Курс магнитный
055/235
Длина основной ВПП
515
Ширина основной ВПП
26
Покрытие основной ВПП
Твёрдое (асфальт)
Освещение ВПП
Нет
Тип: 
Аэродром
Класс аэродрома: 
Принадлежность: 
ГА
Статус: 
Недействующий
Сайт: 
E-mail аэродрома: 
Страна: 
Россия
Регион: 
Марий Эл
Город: 
Дополнительная информация: 
Площадка АХР. Используется автомобилистами, построено 2 учебных эстакады.

Найти трансфер

С помощью этой формы Вы можете найти трансфер из аэропорта Красногорка в город, аэропорт или вокзал:

Карта места

Javascript is required to view this map.

Погода в аэропортах:

Авиационная погода в Екатеринбурге

Регион: 
Погода METAR: 
USSS 271500Z 11007MPS 3600 -SN DRSN SCT036 M19/M22 Q1012 R08R/820350 NOSIG RMK QFE739/0986
Время наблюдения
2021-02-27T15:00:00Z
Температура C
-19.0
Точка росы
-22.0
Направление ветра
110
Скорость ветра (узлы)
14
Метео видимость
2.24
Явления погоды
-SN DRSN
Условия полета
IFR
Аэропорт подробнее: 

Авиационная погода в Казани

Регион: 
Погода METAR: 
UWKD 271500Z 36007MPS 3500 -SN BLSN OVC030 M13/M16 Q1001 R29/420345 NOSIG RMK QFE740/0987
Время наблюдения
2021-02-27T15:00:00Z
Температура C
-13.0
Точка росы
-16.0
Направление ветра
360
Скорость ветра (узлы)
14
Метео видимость
2.17
Явления погоды
-SN BLSN
Условия полета
IFR
Аэропорт подробнее: 

Авиационная погода в Чернобаевке

Регион: 
Погода METAR: 
UKOH 271500Z 32005MPS 300V360 9999 -SHRA BKN021CB 05/03 Q1018 R21/190060 NOSIG
Время наблюдения
2021-02-27T15:00:00Z
Температура C
5.0
Точка росы
3.0
Направление ветра
320
Скорость ветра (узлы)
10
Метео видимость
6.21
Явления погоды
-SHRA
Условия полета
MVFR
Аэропорт подробнее: 

Авиационная погода в Вардё

Регион: 
Погода METAR: 
ENSS 261750Z 35027KT 9999 6000NW -SHRA SCT014 BKN020 01/M02 Q1001 RMK WIND 500FT 35036KT
Время наблюдения
2021-02-26T17:50:00Z
Температура C
1.0
Точка росы
-2.0
Направление ветра
350
Скорость ветра (узлы)
27
Метео видимость
6.21
Явления погоды
-SHRA
Условия полета
MVFR